logo
Search for airport 
image banner adimage banner adimage banner ad
image banner ad

FA0308 - Hippo Hollow Helistop

Located in , South Africa

ICAO - , IATA -

Data provided by Airmate  

General information

Coordinates: S25°1'55" E31°7'26"
Elevation is 1563 feet MSL.
 
View others Airports in Mpumalanga

Operational data

Special qualification required
Current time UTC:
Current local time:
METAR: FAKN 201100Z 07006KT 9999 FEW020 24/15 Q1027 NOSIG
TAF: TAF FAKN 200900Z 2010/2018 VRB03KT 9999 SCT025 TX25/2013Z TN18/2018Z
View NOTAMs / SUP AIP / TFR affecting this airport [VIEW]
Communications frequencies: [VIEW]

Runways:

Airport contact information

Address: South Africa

Satellite view of FA0308